createdAt,value
2023-01-13T00:04:05.288Z,100152.91
2023-01-13T00:09:06.857Z,100143.66
2023-01-13T00:14:08.508Z,100143.13
2023-01-13T00:19:10.028Z,100120.28
2023-01-13T00:24:11.574Z,100121.41
2023-01-13T00:29:13.119Z,100112.84
2023-01-13T00:34:14.677Z,100115.31
2023-01-13T00:39:16.284Z,100107.19
2023-01-13T00:44:17.889Z,100109.91
2023-01-13T00:49:19.472Z,100115.56
2023-01-13T00:54:21.031Z,100108.00
2023-01-13T00:59:22.603Z,100104.28
2023-01-13T01:04:24.173Z,100094.53
2023-01-13T01:09:32.722Z,100087.31
2023-01-13T01:14:34.671Z,100075.16
2023-01-13T01:19:38.884Z,100071.63
2023-01-13T01:24:40.431Z,100081.66
2023-01-13T01:29:41.959Z,100061.47
2023-01-13T01:34:43.485Z,100067.88
2023-01-13T01:39:45.016Z,100069.84
2023-01-13T01:44:52.614Z,100065.44
2023-01-13T01:49:55.080Z,100071.41
2023-01-13T01:54:59.622Z,100071.66
2023-01-13T02:00:01.461Z,100081.50
2023-01-13T02:05:03.088Z,100101.69
2023-01-13T02:10:06.773Z,100132.78
2023-01-13T02:15:15.507Z,100143.97
2023-01-13T02:20:20.046Z,100141.66
2023-01-13T02:25:24.403Z,100137.97
2023-01-13T02:30:55.828Z,100128.19
2023-01-13T02:36:16.910Z,100138.69
2023-01-13T02:41:43.525Z,100133.50
2023-01-13T02:46:51.050Z,100125.69
2023-01-13T02:51:54.882Z,100105.41
2023-01-13T02:56:58.263Z,100103.78
2023-01-13T03:02:01.178Z,100101.34
2023-01-13T03:07:09.856Z,100103.91
2023-01-13T03:12:20.355Z,100103.69
2023-01-13T03:17:39.946Z,100095.59
2023-01-13T03:22:47.931Z,100126.78
2023-01-13T03:28:11.963Z,100110.53
2023-01-13T03:33:39.541Z,100100.53
2023-01-13T03:38:43.428Z,100076.56
2023-01-13T03:44:14.099Z,100085.72
2023-01-13T03:49:19.319Z,100102.78
2023-01-13T03:54:21.762Z,100120.84
2023-01-13T03:59:26.019Z,100123.47
2023-01-13T04:04:33.118Z,100125.53
2023-01-13T04:09:50.891Z,100070.47
2023-01-13T04:14:52.842Z,100101.22
2023-01-13T04:19:54.184Z,100080.97
2023-01-13T04:24:55.481Z,100075.34
2023-01-13T04:29:56.776Z,100076.66
2023-01-13T04:34:58.106Z,100106.84
2023-01-13T04:39:59.424Z,100127.25
2023-01-13T04:45:00.787Z,100131.63
2023-01-13T04:50:02.125Z,100115.03
2023-01-13T04:55:03.580Z,100123.63
2023-01-13T05:00:06.073Z,100121.00
2023-01-13T05:05:07.824Z,100120.19
2023-01-13T05:10:09.601Z,100111.75
2023-01-13T05:15:33.528Z,100108.50
2023-01-13T05:20:34.887Z,100093.47
2023-01-13T05:25:38.522Z,100101.59
2023-01-13T05:30:44.541Z,100102.06
2023-01-13T05:35:46.794Z,100109.53
2023-01-13T05:41:06.800Z,100111.50
2023-01-13T05:46:09.290Z,100115.06
2023-01-13T05:51:11.572Z,100110.59
2023-01-13T05:56:12.996Z,100102.41
2023-01-13T06:01:14.368Z,100114.09
2023-01-13T06:06:16.039Z,100147.81
2023-01-13T06:11:17.399Z,100153.09
2023-01-13T06:16:18.849Z,100164.97
2023-01-13T06:21:20.198Z,100173.28
2023-01-13T06:26:23.022Z,100168.19
2023-01-13T06:31:25.553Z,100172.09
2023-01-13T06:36:30.892Z,100177.19
2023-01-13T06:41:51.463Z,100178.00
2023-01-13T06:46:52.914Z,100186.22
2023-01-13T06:51:54.257Z,100201.53
2023-01-13T06:56:55.681Z,100203.13
2023-01-13T07:01:57.158Z,100209.47
2023-01-13T07:06:58.669Z,100211.25
2023-01-13T07:11:59.972Z,100228.47
2023-01-13T07:17:01.316Z,100233.06
2023-01-13T07:22:02.696Z,100238.19
2023-01-13T07:27:04.101Z,100234.47
2023-01-13T07:32:06.885Z,100226.59
2023-01-13T07:37:08.265Z,100236.41
2023-01-13T07:42:28.102Z,100232.31
2023-01-13T07:47:29.385Z,100237.47
2023-01-13T07:52:30.696Z,100241.34
2023-01-13T07:57:32.026Z,100237.88
2023-01-13T08:02:33.430Z,100253.97
2023-01-13T08:07:34.902Z,100247.28
2023-01-13T08:12:56.757Z,100252.94
2023-01-13T08:17:59.356Z,100280.97
2023-01-13T08:23:01.067Z,100270.53
2023-01-13T08:28:02.403Z,100263.75
2023-01-13T08:33:07.234Z,100285.63
2023-01-13T08:38:09.119Z,100284.22
2023-01-13T08:43:10.649Z,100291.69
2023-01-13T08:48:12.178Z,100304.25
2023-01-13T08:53:13.573Z,100305.38
2023-01-13T08:58:16.193Z,100293.75
2023-01-13T09:03:17.720Z,100293.41
2023-01-13T09:08:19.161Z,100293.41
2023-01-13T09:13:21.886Z,100314.91
2023-01-13T09:18:23.362Z,100321.31
2023-01-13T09:23:24.673Z,100343.97
2023-01-13T09:28:25.987Z,100346.75
2023-01-13T09:33:46.097Z,100349.66
2023-01-13T09:38:50.262Z,100354.69
2023-01-13T09:43:56.065Z,100347.31
2023-01-13T09:48:57.710Z,100351.00
2023-01-13T09:54:11.354Z,100355.47
2023-01-13T09:59:12.789Z,100353.84
2023-01-13T10:04:15.276Z,100356.63
2023-01-13T10:09:21.799Z,100335.50
2023-01-13T10:14:23.097Z,100331.09
2023-01-13T10:19:27.559Z,100330.88
2023-01-13T10:24:47.539Z,100313.09
2023-01-13T10:29:48.869Z,100303.41
2023-01-13T10:34:51.463Z,100316.91
2023-01-13T10:39:57.190Z,100321.09
2023-01-13T10:44:59.653Z,100316.75
2023-01-13T10:50:00.924Z,100319.50
2023-01-13T10:55:02.646Z,100319.97
2023-01-13T11:00:04.551Z,100320.84
2023-01-13T11:05:15.228Z,100330.72
2023-01-13T11:10:16.863Z,100327.97
2023-01-13T11:15:23.695Z,100333.66
2023-01-13T11:20:32.322Z,100340.22
2023-01-13T11:25:44.451Z,100336.19
2023-01-13T11:30:45.790Z,100347.06
2023-01-13T11:36:01.327Z,100349.84
2023-01-13T11:41:08.914Z,100348.72
2023-01-13T11:46:10.909Z,100358.94
2023-01-13T11:51:15.088Z,100360.09
2023-01-13T11:56:24.542Z,100358.75
2023-01-13T12:01:32.058Z,100353.66
2023-01-13T12:06:38.557Z,100360.03
2023-01-13T12:12:10.644Z,100365.63
2023-01-13T12:17:20.355Z,100372.09
2023-01-13T12:22:26.855Z,100402.94
2023-01-13T12:27:30.959Z,100396.97
2023-01-13T12:32:37.961Z,100402.63
2023-01-13T12:37:48.556Z,100404.38
2023-01-13T12:43:11.551Z,100391.44
2023-01-13T12:48:31.358Z,100377.97
2023-01-13T12:53:33.905Z,100402.22
2023-01-13T12:58:35.242Z,100404.59
2023-01-13T13:03:36.700Z,100398.06
2023-01-13T13:09:03.172Z,100393.38
2023-01-13T13:14:07.177Z,100399.97
2023-01-13T13:19:17.757Z,100396.06
2023-01-13T13:24:19.143Z,100396.38
2023-01-13T13:29:39.350Z,100404.06
2023-01-13T13:34:46.760Z,100407.97
2023-01-13T13:40:06.970Z,100405.72
2023-01-13T13:45:35.054Z,100408.16
2023-01-13T13:50:36.383Z,100416.63
2023-01-13T13:55:38.560Z,100444.63
2023-01-13T14:00:39.880Z,100446.34
2023-01-13T14:05:52.551Z,100445.53
2023-01-13T14:10:54.000Z,100471.69
2023-01-13T14:16:05.342Z,100474.53
2023-01-13T14:21:12.493Z,100483.38
2023-01-13T14:26:14.995Z,100493.25
2023-01-13T14:31:16.628Z,100500.38
2023-01-13T14:36:18.149Z,100494.31
2023-01-13T14:41:21.676Z,100506.81
2023-01-13T14:46:25.255Z,100507.22
2023-01-13T14:51:28.064Z,100514.38
2023-01-13T14:56:36.258Z,100524.56
2023-01-13T15:01:39.424Z,100534.53
2023-01-13T15:06:45.546Z,100547.56
2023-01-13T15:11:47.395Z,100560.69
2023-01-13T15:16:48.708Z,100578.22
2023-01-13T15:21:50.015Z,100600.94
2023-01-13T15:26:52.000Z,100601.88
2023-01-13T15:31:53.311Z,100610.75
2023-01-13T15:36:54.615Z,100611.91
2023-01-13T15:42:15.583Z,100621.91
2023-01-13T15:47:16.904Z,100629.06
2023-01-13T15:52:21.410Z,100623.91
2023-01-13T15:57:22.865Z,100639.03
2023-01-13T16:02:25.322Z,100627.19
2023-01-13T16:07:26.702Z,100630.03
2023-01-13T16:12:28.041Z,100636.69
2023-01-13T16:17:30.724Z,100642.25
2023-01-13T16:22:32.154Z,100652.00
2023-01-13T16:27:33.481Z,100665.81
2023-01-13T16:32:34.807Z,100673.81
2023-01-13T16:37:36.147Z,100665.75
2023-01-13T16:42:37.487Z,100681.38
2023-01-13T16:47:39.759Z,100696.91
2023-01-13T16:52:41.121Z,100705.97
2023-01-13T16:57:42.457Z,100716.13
2023-01-13T17:02:43.914Z,100724.13
2023-01-13T17:07:46.705Z,100724.31
2023-01-13T17:12:48.041Z,100742.44
2023-01-13T17:17:52.017Z,100752.16
2023-01-13T17:22:58.288Z,100757.97
2023-01-13T17:28:00.210Z,100752.06
2023-01-13T17:33:01.595Z,100765.19
2023-01-13T17:38:03.006Z,100779.63
2023-01-13T17:43:04.434Z,100793.09
2023-01-13T17:48:06.073Z,100795.97
2023-01-13T17:53:07.389Z,100795.75
2023-01-13T17:58:08.693Z,100812.31
2023-01-13T18:03:10.748Z,100814.06
2023-01-13T18:08:12.059Z,100819.16
2023-01-13T18:13:13.377Z,100831.63
2023-01-13T18:18:14.714Z,100836.81
2023-01-13T18:23:36.207Z,100834.09
2023-01-13T18:28:37.529Z,100848.13
2023-01-13T18:33:38.888Z,100865.56
2023-01-13T18:38:40.174Z,100866.25
2023-01-13T18:43:41.463Z,100869.56
2023-01-13T18:48:42.868Z,100882.59
2023-01-13T18:53:44.194Z,100889.09
2023-01-13T18:58:52.192Z,100885.84
2023-01-13T19:03:54.482Z,100900.03
2023-01-13T19:08:55.956Z,100901.59
2023-01-13T19:13:57.311Z,100914.25
2023-01-13T19:18:59.879Z,100916.22
2023-01-13T19:24:01.471Z,100931.69
2023-01-13T19:29:02.832Z,100944.00
2023-01-13T19:34:04.170Z,100957.63
2023-01-13T19:39:05.502Z,100959.72
2023-01-13T19:44:26.665Z,100963.66
2023-01-13T19:49:27.980Z,100964.47
2023-01-13T19:54:29.305Z,100967.09
2023-01-13T19:59:32.334Z,100970.22
2023-01-13T20:04:37.589Z,100979.81
2023-01-13T20:09:39.413Z,100979.50
2023-01-13T20:14:41.186Z,100981.28
2023-01-13T20:19:42.649Z,100986.97
2023-01-13T20:24:44.012Z,101000.31
2023-01-13T20:29:45.323Z,101012.53
2023-01-13T20:34:46.614Z,101004.41
2023-01-13T20:39:48.227Z,101000.31
2023-01-13T20:44:49.608Z,101003.88
2023-01-13T20:49:50.956Z,101008.41
2023-01-13T20:54:52.290Z,101011.81
2023-01-13T20:59:53.625Z,101005.13
2023-01-13T21:04:54.974Z,101015.16
2023-01-13T21:09:57.735Z,101017.94
2023-01-13T21:15:17.451Z,101022.38
2023-01-13T21:20:18.845Z,101028.56
2023-01-13T21:25:20.239Z,101026.81
2023-01-13T21:30:21.607Z,101043.25
2023-01-13T21:35:22.923Z,101038.56
2023-01-13T21:40:24.263Z,101036.41
2023-01-13T21:45:44.531Z,101041.16
2023-01-13T21:50:45.862Z,101045.75
2023-01-13T21:55:50.245Z,101038.56
2023-01-13T22:00:51.877Z,101048.34
2023-01-13T22:05:55.259Z,101060.59
2023-01-13T22:11:00.216Z,101068.56
2023-01-13T22:16:04.663Z,101066.78
2023-01-13T22:21:06.173Z,101078.00
2023-01-13T22:26:08.038Z,101087.91
2023-01-13T22:31:09.529Z,101089.72
2023-01-13T22:36:10.945Z,101087.25
2023-01-13T22:41:12.279Z,101088.69
2023-01-13T22:46:13.611Z,101082.88
2023-01-13T22:51:16.018Z,101087.91
2023-01-13T22:56:18.882Z,101090.69
2023-01-13T23:01:20.518Z,101087.91
2023-01-13T23:06:23.014Z,101095.72
2023-01-13T23:11:26.644Z,101106.56
2023-01-13T23:16:29.338Z,101121.16
2023-01-13T23:21:31.924Z,101118.31
2023-01-13T23:26:33.735Z,101109.66
2023-01-13T23:31:35.072Z,101112.56
2023-01-13T23:36:40.853Z,101104.97
2023-01-13T23:41:42.192Z,101098.66
2023-01-13T23:46:43.523Z,101113.25
2023-01-13T23:51:44.819Z,101118.78
2023-01-13T23:56:46.127Z,101138.94
